Time;durP1;ratioP1;P1;durP2;ratioP2;P2;SDS_P1;SDS_P2;PMS_P1;PMS_P2;Temp;Humidity;BMP_temperature;BMP_pressure;BME280_temperature;BME280_humidity;BME280_pressure;Samples;Min_cycle;Max_cycle;Signal;HPM_P1;HPM_P2
2021/01/06 00:01:12;;;;;;;45.40;28.42;;;2.90;91.80;;;;;;5046303;28;20376;-77
2021/01/06 00:03:38;;;;;;;48.78;30.67;;;2.90;91.90;;;;;;5045703;28;20029;-75
2021/01/06 00:06:11;;;;;;;50.88;31.73;;;3.00;92.00;;;;;;5048003;28;20036;-76
2021/01/06 00:08:37;;;;;;;50.40;30.33;;;3.00;91.90;;;;;;5044786;28;20471;-76
2021/01/06 00:11:03;;;;;;;49.30;29.63;;;3.00;91.80;;;;;;5045827;28;20116;-77
2021/01/06 00:13:29;;;;;;;53.13;31.30;;;3.00;91.70;;;;;;5044135;28;20072;-75
2021/01/06 00:15:55;;;;;;;50.90;30.52;;;3.00;91.70;;;;;;5046954;28;20442;-76
2021/01/06 00:18:24;;;;;;;53.55;32.35;;;3.10;91.70;;;;;;5043259;28;20388;-77
2021/01/06 00:20:50;;;;;;;54.58;31.38;;;3.00;91.70;;;;;;5045701;28;20529;-75
2021/01/06 00:23:16;;;;;;;53.28;31.92;;;3.10;91.50;;;;;;5047100;28;20053;-76
2021/01/06 00:25:42;;;;;;;51.78;31.48;;;3.10;91.50;;;;;;5044166;28;20047;-76
2021/01/06 00:28:10;;;;;;;55.20;32.55;;;3.10;91.50;;;;;;5049538;28;20037;-75
2021/01/06 00:30:38;;;;;;;57.55;33.97;;;3.10;91.50;;;;;;5060135;28;20434;-76
2021/01/06 00:33:10;;;;;;;57.53;34.03;;;3.10;91.40;;;;;;5047186;28;20022;-76
2021/01/06 00:35:36;;;;;;;52.45;32.28;;;3.20;91.20;;;;;;5045867;28;20063;-75
2021/01/06 00:38:04;;;;;;;53.33;32.05;;;3.20;91.10;;;;;;5048513;28;20116;-76
2021/01/06 00:40:32;;;;;;;52.13;33.70;;;3.20;91.20;;;;;;5050703;28;20033;-75
2021/01/06 00:43:06;;;;;;;51.88;32.00;;;3.10;91.20;;;;;;5051396;28;20059;-75
2021/01/06 00:45:33;;;;;;;52.90;32.15;;;3.20;91.10;;;;;;5048457;28;20037;-76
2021/01/06 00:47:59;;;;;;;53.92;32.70;;;3.20;91.10;;;;;;5047307;28;20430;-77
2021/01/06 00:50:27;;;;;;;53.53;32.97;;;3.20;91.10;;;;;;5049299;28;20041;-75
2021/01/06 00:53:13;;;;;;;49.92;30.65;;;3.20;91.10;;;;;;5053352;28;20045;-76
2021/01/06 00:55:39;;;;;;;54.08;33.42;;;3.20;91.10;;;;;;5044634;28;20049;-75
2021/01/06 00:58:04;;;;;;;52.05;31.55;;;3.20;91.00;;;;;;5048232;28;20373;-75
2021/01/06 01:00:31;;;;;;;44.47;27.98;;;3.20;91.00;;;;;;5049562;28;20033;-75
2021/01/06 01:02:57;;;;;;;49.70;30.27;;;3.20;90.80;;;;;;5049744;28;20064;-76
2021/01/06 01:05:33;;;;;;;42.97;27.30;;;3.20;90.80;;;;;;5049057;28;20358;-76
2021/01/06 01:08:00;;;;;;;45.97;29.08;;;3.20;90.60;;;;;;5050652;28;20463;-75
2021/01/06 01:10:41;;;;;;;45.70;30.77;;;3.20;90.70;;;;;;5047104;28;20033;-75
2021/01/06 01:13:19;;;;;;;46.95;28.73;;;3.20;90.70;;;;;;5045444;28;20431;-75
2021/01/06 01:15:47;;;;;;;46.28;29.13;;;3.20;90.70;;;;;;5048214;28;20052;-75
2021/01/06 01:18:19;;;;;;;43.95;27.60;;;3.20;90.70;;;;;;5049195;28;20060;-75
2021/01/06 01:20:49;;;;;;;43.25;27.65;;;3.30;90.60;;;;;;5049998;28;20127;-77
2021/01/06 01:23:16;;;;;;;45.33;27.52;;;3.30;90.50;;;;;;5048826;28;20052;-75
2021/01/06 01:25:43;;;;;;;43.08;26.33;;;3.30;90.40;;;;;;5048658;28;20056;-75
2021/01/06 01:28:10;;;;;;;42.63;27.88;;;3.20;90.40;;;;;;5047344;28;20052;-76
2021/01/06 01:30:36;;;;;;;46.33;29.92;;;3.30;90.30;;;;;;5051813;28;20045;-75
2021/01/06 01:33:02;;;;;;;47.47;28.40;;;3.30;90.40;;;;;;5049565;28;20545;-75
2021/01/06 01:35:30;;;;;;;47.13;30.88;;;3.30;90.30;;;;;;5051811;28;20128;-75
2021/01/06 01:37:58;;;;;;;47.28;30.00;;;3.20;90.30;;;;;;5048056;28;20124;-75
2021/01/06 01:40:28;;;;;;;45.78;28.85;;;3.30;90.50;;;;;;5047213;28;20037;-76
2021/01/06 01:43:18;;;;;;;46.40;29.10;;;3.20;90.30;;;;;;5045203;28;20479;-75
2021/01/06 01:45:49;;;;;;;46.63;29.67;;;3.20;90.40;;;;;;5048062;28;20147;-75
2021/01/06 01:48:41;;;;;;;43.65;28.75;;;3.30;90.50;;;;;;5061223;28;20423;-75
2021/01/06 01:51:12;;;;;;;44.90;28.90;;;3.30;90.40;;;;;;5042430;28;20050;-75
2021/01/06 01:54:05;;;;;;;45.97;28.17;;;3.30;90.40;;;;;;5049626;28;20037;-75
2021/01/06 01:56:53;;;;;;;45.03;28.75;;;3.20;90.30;;;;;;5045840;28;22880;-75
2021/01/06 01:59:49;;;;;;;43.28;27.98;;;3.20;90.40;;;;;;5039985;28;20059;-75
2021/01/06 02:02:42;;;;;;;48.72;28.40;;;3.30;90.30;;;;;;5044923;28;20524;-75
2021/01/06 02:05:14;;;;;;;40.55;26.48;;;3.30;90.20;;;;;;5062027;28;20078;-77
2021/01/06 02:08:05;;;;;;;43.20;28.10;;;3.30;90.00;;;;;;5047801;28;20031;-75
2021/01/06 02:10:33;;;;;;;40.97;26.35;;;3.30;89.90;;;;;;5047953;28;20040;-75
2021/01/06 02:13:42;;;;;;;41.58;25.70;;;3.40;90.00;;;;;;5047770;28;20117;-76
2021/01/06 02:16:45;;;;;;;40.53;25.88;;;3.30;89.80;;;;;;5002030;28;20046;-75
2021/01/06 02:19:13;;;;;;;40.72;24.80;;;3.40;89.70;;;;;;5004565;28;20057;-75
2021/01/06 02:21:39;;;;;;;37.28;25.25;;;3.40;89.80;;;;;;5036670;28;20040;-75
2021/01/06 02:24:05;;;;;;;38.92;23.85;;;3.40;89.80;;;;;;5054801;28;20029;-75
2021/01/06 02:26:31;;;;;;;40.08;26.52;;;3.40;89.80;;;;;;5047998;28;20052;-75
2021/01/06 02:28:57;;;;;;;36.63;24.40;;;3.40;89.70;;;;;;5047485;28;20037;-75
2021/01/06 02:31:24;;;;;;;35.40;22.73;;;3.40;89.70;;;;;;5044633;28;20041;-75
2021/01/06 02:33:51;;;;;;;35.30;23.67;;;3.40;89.80;;;;;;5051276;28;20045;-75
2021/01/06 02:36:17;;;;;;;39.20;25.20;;;3.40;89.70;;;;;;5051482;28;20043;-74
2021/01/06 02:38:43;;;;;;;40.47;26.25;;;3.40;89.50;;;;;;5045786;28;20416;-75
2021/01/06 02:41:11;;;;;;;36.58;25.30;;;3.40;89.30;;;;;;5050246;28;20040;-75
2021/01/06 02:43:37;;;;;;;39.15;25.70;;;3.40;89.50;;;;;;5046771;28;20053;-75
2021/01/06 02:46:03;;;;;;;37.85;25.33;;;3.40;89.40;;;;;;5043963;28;20037;-75
2021/01/06 02:48:30;;;;;;;36.83;25.00;;;3.50;89.50;;;;;;5047428;28;20044;-75
2021/01/06 02:51:01;;;;;;;37.88;26.00;;;3.40;89.60;;;;;;5045720;28;20558;-75
2021/01/06 02:53:34;;;;;;;37.72;25.15;;;3.50;89.70;;;;;;5048719;28;20037;-75
2021/01/06 02:56:01;;;;;;;40.92;27.42;;;3.40;89.80;;;;;;5046391;28;20040;-75
2021/01/06 02:58:28;;;;;;;43.78;27.27;;;3.40;89.80;;;;;;5045133;28;20033;-76
2021/01/06 03:00:54;;;;;;;38.00;26.48;;;3.40;89.90;;;;;;5045396;28;20120;-75
2021/01/06 03:03:25;;;;;;;38.85;25.20;;;3.50;89.90;;;;;;5045027;28;20472;-75
2021/01/06 03:06:20;;;;;;;36.67;25.50;;;3.40;90.00;;;;;;5046559;28;20051;-76
2021/01/06 03:08:46;;;;;;;37.72;23.83;;;3.50;90.10;;;;;;5041979;28;20048;-76
2021/01/06 03:11:12;;;;;;;37.50;24.27;;;3.40;90.10;;;;;;5046804;28;20029;-76
2021/01/06 03:13:38;;;;;;;36.78;25.30;;;3.40;90.30;;;;;;5049025;28;20032;-75
2021/01/06 03:16:04;;;;;;;35.80;23.25;;;3.40;90.40;;;;;;5050246;28;20045;-75
2021/01/06 03:18:30;;;;;;;36.85;24.70;;;3.50;90.50;;;;;;5047398;28;20083;-75
2021/01/06 03:21:01;;;;;;;36.00;23.67;;;3.40;90.40;;;;;;5045889;28;20492;-75
2021/01/06 03:23:34;;;;;;;38.58;24.73;;;3.50;90.60;;;;;;5040101;28;20071;-76
2021/01/06 03:26:04;;;;;;;36.33;24.25;;;3.40;90.60;;;;;;5049175;28;20064;-75
2021/01/06 03:28:33;;;;;;;35.47;23.63;;;3.50;90.70;;;;;;5045140;28;20033;-75
2021/01/06 03:31:03;;;;;;;36.33;23.60;;;3.50;90.70;;;;;;5045407;28;20372;-75
2021/01/06 03:33:42;;;;;;;35.72;23.50;;;3.50;90.70;;;;;;5046140;28;20369;-77
2021/01/06 03:36:17;;;;;;;38.10;24.38;;;3.50;90.70;;;;;;5048935;28;20072;-77
2021/01/06 03:39:00;;;;;;;36.63;24.45;;;3.50;90.80;;;;;;5046621;28;20124;-75
2021/01/06 03:41:27;;;;;;;35.97;24.42;;;3.50;90.90;;;;;;5042474;28;20037;-75
2021/01/06 03:43:58;;;;;;;36.83;23.65;;;3.50;90.90;;;;;;5043084;28;20037;-76
2021/01/06 03:46:33;;;;;;;38.65;24.80;;;3.50;91.10;;;;;;5042297;28;20039;-78
2021/01/06 03:49:02;;;;;;;39.20;24.42;;;3.50;91.10;;;;;;5045089;28;20033;-75
2021/01/06 03:51:44;;;;;;;40.15;25.42;;;3.50;91.10;;;;;;5041966;28;20440;-75
2021/01/06 03:54:33;;;;;;;38.88;24.42;;;3.60;91.20;;;;;;5045610;28;20172;-75
2021/01/06 03:57:01;;;;;;;39.05;23.52;;;3.60;91.20;;;;;;5042857;28;20044;-78
2021/01/06 03:59:32;;;;;;;39.17;25.30;;;3.60;91.30;;;;;;5046048;28;20417;-75
2021/01/06 04:02:13;;;;;;;39.50;26.35;;;3.60;91.30;;;;;;5045219;28;20068;-75
2021/01/06 04:04:45;;;;;;;40.13;25.52;;;3.60;91.20;;;;;;5046611;28;20154;-76
2021/01/06 04:07:30;;;;;;;39.70;24.77;;;3.60;91.20;;;;;;5044614;28;20399;-76
2021/01/06 04:09:59;;;;;;;39.95;25.33;;;3.60;91.20;;;;;;5044182;28;20472;-76
2021/01/06 04:12:25;;;;;;;41.88;26.85;;;3.60;91.30;;;;;;5045797;28;20048;-75
2021/01/06 04:14:50;;;;;;;39.20;24.13;;;3.60;91.40;;;;;;5045781;28;20041;-76
2021/01/06 04:17:24;;;;;;;41.22;25.38;;;3.60;91.50;;;;;;5048789;28;20037;-75
2021/01/06 04:19:58;;;;;;;43.53;25.65;;;3.70;91.40;;;;;;5049600;28;20043;-75
2021/01/06 04:22:37;;;;;;;38.38;24.27;;;3.70;91.30;;;;;;5051647;28;20045;-75
2021/01/06 04:25:12;;;;;;;41.70;24.77;;;3.60;91.40;;;;;;5052232;28;20063;-75
2021/01/06 04:27:38;;;;;;;43.40;24.48;;;3.70;91.40;;;;;;5049596;28;20043;-75
2021/01/06 04:30:30;;;;;;;44.05;27.20;;;3.70;91.30;;;;;;5051382;28;20041;-76
2021/01/06 04:32:57;;;;;;;40.88;25.25;;;3.60;91.40;;;;;;5045598;28;20041;-75
2021/01/06 04:35:24;;;;;;;40.17;25.08;;;3.60;91.40;;;;;;5047957;28;20060;-76
2021/01/06 04:37:49;;;;;;;42.85;26.25;;;3.60;91.50;;;;;;5045691;28;20045;-76
2021/01/06 04:40:20;;;;;;;41.50;25.55;;;3.70;91.40;;;;;;5049362;28;20103;-76
2021/01/06 04:42:46;;;;;;;43.92;27.17;;;3.70;91.50;;;;;;5053203;28;20045;-76
2021/01/06 04:45:18;;;;;;;43.42;25.95;;;3.70;91.40;;;;;;5049228;28;20526;-75
2021/01/06 04:48:15;;;;;;;45.35;27.15;;;3.70;91.30;;;;;;5045625;28;20506;-75
2021/01/06 04:50:59;;;;;;;43.55;26.42;;;3.70;91.30;;;;;;5048004;28;20032;-76
2021/01/06 04:53:51;;;;;;;42.38;26.42;;;3.70;91.30;;;;;;5048490;28;20041;-75
2021/01/06 04:56:38;;;;;;;41.13;25.10;;;3.80;91.30;;;;;;5047142;28;20076;-76
2021/01/06 04:59:25;;;;;;;42.72;25.20;;;3.70;91.30;;;;;;5048577;28;20082;-76
2021/01/06 05:02:10;;;;;;;39.60;24.10;;;3.70;91.30;;;;;;5048744;28;20659;-76
2021/01/06 05:05:13;;;;;;;42.15;25.40;;;3.80;91.20;;;;;;5052274;28;20122;-76
2021/01/06 05:07:51;;;;;;;42.38;25.95;;;3.70;91.20;;;;;;5040279;28;20037;-77
2021/01/06 05:10:55;;;;;;;41.13;24.67;;;3.70;91.30;;;;;;5045745;28;20391;-76
2021/01/06 05:13:27;;;;;;;42.58;25.52;;;3.70;91.40;;;;;;5046111;28;20060;-74
2021/01/06 05:16:04;;;;;;;45.13;25.02;;;3.70;91.30;;;;;;5048639;28;20047;-74
2021/01/06 05:18:30;;;;;;;41.97;23.10;;;3.70;91.30;;;;;;5047596;28;20040;-75
2021/01/06 05:20:56;;;;;;;42.70;24.90;;;3.70;91.30;;;;;;5054838;28;20131;-73
2021/01/06 05:23:27;;;;;;;41.42;25.25;;;3.70;91.20;;;;;;5048003;28;20029;-74
2021/01/06 05:25:54;;;;;;;40.97;25.00;;;3.70;91.20;;;;;;5048452;28;20044;-75
2021/01/06 05:28:22;;;;;;;40.63;24.58;;;3.70;91.20;;;;;;5050944;28;20075;-75
2021/01/06 05:30:53;;;;;;;37.67;23.52;;;3.70;91.10;;;;;;5047849;28;20043;-75
2021/01/06 05:33:31;;;;;;;40.70;24.52;;;3.70;91.20;;;;;;5047505;28;20152;-74
2021/01/06 05:35:57;;;;;;;38.17;23.60;;;3.70;91.20;;;;;;5047900;28;20051;-74
2021/01/06 05:38:22;;;;;;;39.17;24.30;;;3.70;91.30;;;;;;5046975;28;20115;-75
2021/01/06 05:40:48;;;;;;;37.95;23.58;;;3.60;91.30;;;;;;5047573;28;20040;-74
2021/01/06 05:43:16;;;;;;;38.42;24.00;;;3.70;91.20;;;;;;5043472;28;20035;-75
2021/01/06 05:45:55;;;;;;;38.38;24.90;;;3.70;91.30;;;;;;5048162;28;20514;-75
2021/01/06 05:48:33;;;;;;;38.42;23.42;;;3.70;91.10;;;;;;5044479;28;20065;-74
2021/01/06 05:51:07;;;;;;;35.67;22.02;;;3.70;91.10;;;;;;5046420;28;20049;-74
2021/01/06 05:53:55;;;;;;;36.92;24.73;;;3.70;91.10;;;;;;5063168;28;20043;-74
2021/01/06 05:56:49;;;;;;;37.40;23.15;;;3.60;91.10;;;;;;5045532;28;20053;-75
2021/01/06 05:59:20;;;;;;;39.60;23.85;;;3.70;91.20;;;;;;5050454;28;20436;-76
2021/01/06 06:02:16;;;;;;;38.72;23.90;;;3.60;91.40;;;;;;5046002;28;20045;-76
2021/01/06 06:04:41;;;;;;;;;;;3.60;91.50;;;;;;5052688;28;20060;-74
2021/01/06 06:07:12;;;;;;;40.67;24.20;;;3.60;91.80;;;;;;5046531;28;19979;-74
2021/01/06 06:10:16;;;;;;;38.88;24.08;;;3.60;91.70;;;;;;5042949;28;20526;-75
2021/01/06 06:13:02;;;;;;;37.97;22.05;;;3.60;91.80;;;;;;5044466;28;20487;-74
2021/01/06 06:15:46;;;;;;;40.47;24.92;;;3.60;91.80;;;;;;5045107;28;20045;-74
2021/01/06 06:18:28;;;;;;;37.97;23.42;;;3.60;91.90;;;;;;5047184;28;20471;-74
2021/01/06 06:21:18;;;;;;;40.30;23.75;;;3.60;91.70;;;;;;5041750;28;20364;-74
2021/01/06 06:23:51;;;;;;;41.15;21.67;;;3.60;91.70;;;;;;5043555;28;20037;-75
2021/01/06 06:26:21;;;;;;;38.65;23.33;;;3.60;91.70;;;;;;5046419;28;20128;-74
2021/01/06 06:29:26;;;;;;;36.78;22.92;;;3.60;91.70;;;;;;5047446;28;20033;-76
2021/01/06 06:31:54;;;;;;;40.35;23.70;;;3.60;91.50;;;;;;5046558;28;20138;-75
2021/01/06 06:34:30;;;;;;;37.53;23.52;;;3.60;91.60;;;;;;5046132;28;20154;-74
2021/01/06 06:37:22;;;;;;;39.97;22.77;;;3.60;91.50;;;;;;5051874;28;20120;-74
2021/01/06 06:40:07;;;;;;;38.00;23.42;;;3.60;91.50;;;;;;5037375;28;20033;-74
2021/01/06 06:42:35;;;;;;;;;;;3.60;91.40;;;;;;5046985;28;20028;-74
2021/01/06 06:45:03;;;;;;;38.30;23.17;;;3.60;91.30;;;;;;5051026;28;19908;-75
2021/01/06 06:48:00;;;;;;;39.78;25.05;;;3.60;91.20;;;;;;5045300;28;20487;-75
2021/01/06 06:51:03;;;;;;;39.78;24.15;;;3.60;91.20;;;;;;5047411;28;20037;-74
2021/01/06 06:53:58;;;;;;;36.88;22.40;;;3.60;90.70;;;;;;5045774;28;20456;-74
2021/01/06 06:56:50;;;;;;;36.33;21.23;;;3.60;90.50;;;;;;5048478;28;20045;-74
2021/01/06 06:59:53;;;;;;;35.78;21.08;;;3.60;90.50;;;;;;5046997;28;20472;-74
2021/01/06 07:02:19;;;;;;;34.33;19.83;;;3.60;90.50;;;;;;5041640;28;20436;-76
2021/01/06 07:04:50;;;;;;;34.50;20.83;;;3.60;90.60;;;;;;5054682;28;20052;-73
2021/01/06 07:07:39;;;;;;;31.80;20.40;;;3.60;90.60;;;;;;5048992;28;20036;-75
2021/01/06 07:10:30;;;;;;;33.97;21.67;;;3.60;90.40;;;;;;5048130;28;20094;-75
2021/01/06 07:13:06;;;;;;;33.30;19.75;;;3.60;90.50;;;;;;5040656;28;20039;-75
2021/01/06 07:15:40;;;;;;;34.05;19.77;;;3.50;90.50;;;;;;5046449;28;20029;-75
2021/01/06 07:18:24;;;;;;;36.10;21.73;;;3.60;90.70;;;;;;5060020;28;20145;-74
2021/01/06 07:21:00;;;;;;;35.75;22.17;;;3.50;90.60;;;;;;5045626;28;20044;-75
2021/01/06 07:23:26;;;;;;;37.97;22.58;;;3.50;90.50;;;;;;5046245;28;20056;-74
2021/01/06 07:26:02;;;;;;;34.88;20.42;;;3.50;90.50;;;;;;5048463;28;20135;-76
2021/01/06 07:28:28;;;;;;;37.33;22.38;;;3.50;90.40;;;;;;5045202;28;20041;-74
2021/01/06 07:30:54;;;;;;;38.33;21.83;;;3.50;90.40;;;;;;5046478;28;20047;-74
2021/01/06 07:33:24;;;;;;;39.25;22.75;;;3.50;90.30;;;;;;5044879;28;20512;-74
2021/01/06 07:35:50;;;;;;;36.67;23.05;;;3.50;90.30;;;;;;5044237;28;20056;-74
2021/01/06 07:38:18;;;;;;;37.78;22.90;;;3.50;90.50;;;;;;5044308;28;20037;-75
2021/01/06 07:40:46;;;;;;;37.30;23.05;;;3.50;90.40;;;;;;5043691;28;20291;-76
2021/01/06 07:43:22;;;;;;;33.33;21.40;;;3.50;90.50;;;;;;5044339;28;20091;-76
2021/01/06 07:45:59;;;;;;;40.60;23.63;;;3.50;90.60;;;;;;5047568;28;20095;-77
2021/01/06 07:48:37;;;;;;;37.63;21.50;;;3.50;90.70;;;;;;5046529;28;20037;-75
2021/01/06 07:51:02;;;;;;;34.53;20.70;;;3.50;90.50;;;;;;5047530;28;20041;-76
2021/01/06 07:53:52;;;;;;;35.67;20.83;;;3.50;90.40;;;;;;5042601;28;20373;-76
2021/01/06 07:56:57;;;;;;;32.33;18.40;;;3.40;90.50;;;;;;5044613;28;20488;-74
2021/01/06 07:59:45;;;;;;;29.88;19.48;;;3.50;90.50;;;;;;5029859;28;20025;-73
2021/01/06 08:02:17;;;;;;;31.80;19.13;;;3.40;90.50;;;;;;5043823;28;20071;-74
2021/01/06 08:05:18;;;;;;;31.15;19.75;;;3.50;90.50;;;;;;5048512;28;20041;-75
2021/01/06 08:07:44;;;;;;;30.20;19.23;;;3.50;90.50;;;;;;5030958;28;20438;-73
2021/01/06 08:10:28;;;;;;;33.85;20.38;;;3.50;90.40;;;;;;5046064;28;20104;-74
2021/01/06 08:13:13;;;;;;;32.35;19.92;;;3.40;90.50;;;;;;5048231;28;20472;-73
2021/01/06 08:15:39;;;;;;;31.65;18.15;;;3.40;90.50;;;;;;5046240;28;20051;-72
2021/01/06 08:18:16;;;;;;;30.58;19.45;;;3.50;90.60;;;;;;5046983;28;20033;-72
2021/01/06 08:21:02;;;;;;;31.73;19.77;;;3.50;90.50;;;;;;5040752;28;20033;-73
2021/01/06 08:23:49;;;;;;;32.13;19.52;;;3.50;90.50;;;;;;5043301;28;20037;-72
2021/01/06 08:26:29;;;;;;;29.67;17.98;;;3.50;90.40;;;;;;5045251;28;20052;-73
2021/01/06 08:29:15;;;;;;;28.90;17.77;;;3.60;90.30;;;;;;5042601;28;20134;-72
2021/01/06 08:31:41;;;;;;;32.90;20.05;;;3.40;90.10;;;;;;5046982;28;20041;-71
2021/01/06 08:34:17;;;;;;;30.20;19.55;;;3.40;90.40;;;;;;5044771;28;20095;-74
2021/01/06 08:36:43;;;;;;;31.75;19.27;;;3.50;90.10;;;;;;5044901;28;20361;-73
2021/01/06 08:39:17;;;;;;;29.92;19.60;;;3.50;90.20;;;;;;5042730;28;20490;-72
2021/01/06 08:41:45;;;;;;;29.95;19.35;;;3.50;90.20;;;;;;5046469;28;20459;-71
2021/01/06 08:44:39;;;;;;;31.48;19.50;;;3.50;90.20;;;;;;5042968;28;20490;-74
2021/01/06 08:47:11;;;;;;;31.30;19.77;;;3.50;90.10;;;;;;5041303;28;20047;-73
2021/01/06 08:49:44;;;;;;;35.72;21.25;;;3.50;90.10;;;;;;5047068;28;20033;-71
2021/01/06 08:52:28;;;;;;;33.58;20.65;;;3.50;90.20;;;;;;5046506;28;20033;-72
2021/01/06 08:55:18;;;;;;;30.50;20.45;;;3.50;90.10;;;;;;5043696;28;20045;-73
2021/01/06 08:57:44;;;;;;;36.03;20.77;;;3.60;90.00;;;;;;5046392;28;20036;-71
2021/01/06 09:00:30;;;;;;;33.50;22.10;;;3.50;89.90;;;;;;5044533;28;20033;-72
2021/01/06 09:03:01;;;;;;;32.80;22.13;;;3.60;89.90;;;;;;5048211;28;20048;-71
2021/01/06 09:05:47;;;;;;;34.70;22.15;;;3.60;89.80;;;;;;5046670;28;20036;-72
2021/01/06 09:08:27;;;;;;;37.22;23.80;;;3.60;89.80;;;;;;5060832;28;20395;-72
2021/01/06 09:11:07;;;;;;;32.85;21.58;;;3.60;90.00;;;;;;5040098;28;20040;-72
2021/01/06 09:13:42;;;;;;;35.20;21.25;;;3.60;89.90;;;;;;5047724;28;20064;-72
2021/01/06 09:16:26;;;;;;;33.67;21.42;;;3.50;90.00;;;;;;5048735;28;20037;-78
2021/01/06 09:19:12;;;;;;;37.53;22.33;;;3.50;90.20;;;;;;5049169;28;20484;-73
2021/01/06 09:21:40;;;;;;;40.30;24.08;;;3.60;90.00;;;;;;5045353;28;20053;-75
2021/01/06 09:24:14;;;;;;;41.80;25.42;;;3.60;90.10;;;;;;5044192;28;20116;-74
2021/01/06 09:26:44;;;;;;;42.35;24.70;;;3.60;90.00;;;;;;5051025;28;20033;-74
2021/01/06 09:29:20;;;;;;;43.75;25.65;;;3.60;89.80;;;;;;5046108;28;20179;-74
2021/01/06 09:31:53;;;;;;;41.85;25.63;;;3.60;89.70;;;;;;5051173;28;20071;-73
2021/01/06 09:34:26;;;;;;;41.95;25.70;;;3.60;89.80;;;;;;5047884;28;20036;-73
2021/01/06 09:36:52;;;;;;;39.55;24.13;;;3.60;89.50;;;;;;5051652;28;20472;-74
2021/01/06 09:39:23;;;;;;;39.80;25.33;;;3.70;89.70;;;;;;5046934;28;20535;-75
2021/01/06 09:41:53;;;;;;;38.88;23.33;;;3.60;89.10;;;;;;5048924;28;20084;-75
2021/01/06 09:44:19;;;;;;;39.75;23.92;;;3.60;89.10;;;;;;5045659;28;20358;-74
2021/01/06 09:46:45;;;;;;;36.25;22.63;;;3.70;89.10;;;;;;5049082;28;20036;-74
2021/01/06 09:49:36;;;;;;;32.50;19.63;;;3.70;88.80;;;;;;5047698;28;20033;-75
2021/01/06 09:52:22;;;;;;;31.77;19.70;;;3.70;88.70;;;;;;5028018;28;20546;-74
2021/01/06 09:54:51;;;;;;;35.67;20.63;;;3.70;88.50;;;;;;5035827;28;20060;-77
2021/01/06 09:57:19;;;;;;;35.35;21.60;;;3.60;88.60;;;;;;5039331;28;20460;-74
2021/01/06 09:59:49;;;;;;;32.67;20.65;;;3.60;88.90;;;;;;5038590;28;20029;-74
2021/01/06 10:02:23;;;;;;;37.40;21.83;;;3.80;88.80;;;;;;5040884;28;20098;-77
2021/01/06 10:04:52;;;;;;;40.00;24.13;;;3.80;88.70;;;;;;5035088;28;20099;-76
2021/01/06 10:07:35;;;;;;;39.83;24.05;;;3.80;88.50;;;;;;5031823;28;20037;-73
2021/01/06 10:10:24;;;;;;;42.58;24.52;;;3.80;88.70;;;;;;5032509;28;20108;-74
2021/01/06 10:13:22;;;;;;;36.25;22.15;;;3.90;89.00;;;;;;5041379;28;20075;-75
2021/01/06 10:16:06;;;;;;;31.67;20.73;;;3.80;88.80;;;;;;5035605;28;20467;-74
2021/01/06 10:19:06;;;;;;;31.58;20.50;;;3.80;89.00;;;;;;5044696;28;20033;-73
2021/01/06 10:21:35;;;;;;;30.45;19.02;;;3.60;88.60;;;;;;5040638;28;20037;-75
2021/01/06 10:24:24;;;;;;;29.90;18.85;;;3.60;89.00;;;;;;5042501;28;20090;-73
2021/01/06 10:27:00;;;;;;;32.88;20.70;;;3.50;89.40;;;;;;5033394;28;20049;-74
2021/01/06 10:29:29;;;;;;;35.22;22.90;;;3.50;89.80;;;;;;5032735;28;20036;-77
2021/01/06 10:32:06;;;;;;;35.85;22.95;;;3.60;89.50;;;;;;5036452;28;20064;-74
2021/01/06 10:35:05;;;;;;;37.22;22.52;;;3.50;89.30;;;;;;5031541;28;20052;-77
2021/01/06 10:37:31;;;;;;;34.92;22.48;;;3.50;89.50;;;;;;5033505;28;20041;-76
2021/01/06 10:40:15;;;;;;;32.38;20.63;;;3.60;89.70;;;;;;5042891;28;20040;-76
2021/01/06 10:42:42;;;;;;;32.45;20.98;;;3.50;89.20;;;;;;5039783;28;20044;-73
2021/01/06 10:45:14;;;;;;;34.17;20.80;;;3.30;89.50;;;;;;5040450;28;20040;-78
2021/01/06 10:47:50;;;;;;;35.00;21.63;;;3.30;89.80;;;;;;5039388;28;20031;-74
2021/01/06 10:50:29;;;;;;;33.22;21.42;;;3.30;89.70;;;;;;5032469;28;20375;-77
2021/01/06 10:53:13;;;;;;;31.80;20.70;;;3.20;89.90;;;;;;5029582;28;20516;-74
2021/01/06 10:56:15;;;;;;;31.95;21.05;;;3.20;90.40;;;;;;5030706;28;20767;-73
2021/01/06 10:58:59;;;;;;;29.48;19.50;;;3.20;90.10;;;;;;4987227;28;20455;-75
2021/01/06 11:01:28;;;;;;;28.95;17.52;;;3.20;90.20;;;;;;5032942;28;20412;-77
2021/01/06 11:04:15;;;;;;;34.22;21.25;;;3.30;90.30;;;;;;5052182;28;20064;-76
2021/01/06 11:07:18;;;;;;;31.77;20.77;;;3.40;90.50;;;;;;5035462;28;20099;-75
2021/01/06 11:10:34;;;;;;;28.88;19.02;;;3.50;90.50;;;;;;5035877;28;20130;-75
2021/01/06 11:13:14;;;;;;;26.02;17.63;;;3.40;90.30;;;;;;5019559;28;20551;-80
2021/01/06 11:15:53;;;;;;;22.52;14.45;;;3.40;90.00;;;;;;5038757;28;20049;-77
2021/01/06 11:18:33;;;;;;;24.10;15.65;;;3.30;89.40;;;;;;5035146;28;20517;-78
2021/01/06 11:21:11;;;;;;;24.73;15.98;;;3.30;89.90;;;;;;5028196;28;20052;-79
2021/01/06 11:23:44;;;;;;;24.42;16.30;;;3.40;90.30;;;;;;5030232;28;20452;-75
2021/01/06 11:26:30;;;;;;;24.38;16.25;;;3.30;90.30;;;;;;5026982;28;20247;-74
2021/01/06 11:29:11;;;;;;;21.65;14.43;;;3.30;90.60;;;;;;5047025;28;20048;-74
2021/01/06 11:31:40;;;;;;;21.73;14.05;;;3.20;90.30;;;;;;5032814;28;20029;-74
2021/01/06 11:34:11;;;;;;;21.23;14.85;;;3.10;90.20;;;;;;5025570;28;20032;-75
2021/01/06 11:36:51;;;;;;;20.23;13.73;;;3.10;90.40;;;;;;5029318;28;20091;-79
2021/01/06 11:39:38;;;;;;;20.65;14.52;;;3.10;90.50;;;;;;5027462;28;20468;-75
2021/01/06 11:42:17;;;;;;;23.90;16.38;;;3.10;90.40;;;;;;5031350;28;20033;-74
2021/01/06 11:44:47;;;;;;;19.67;14.00;;;3.10;90.40;;;;;;5019690;28;20045;-75
2021/01/06 11:47:37;;;;;;;26.83;17.08;;;3.10;90.30;;;;;;5033995;28;20039;-75
2021/01/06 11:50:23;;;;;;;25.67;16.77;;;3.10;90.30;;;;;;5047709;28;20028;-74
2021/01/06 11:52:50;;;;;;;25.60;16.90;;;3.10;90.50;;;;;;5045105;28;20055;-75
2021/01/06 11:55:16;;;;;;;26.17;16.80;;;3.10;90.60;;;;;;5044144;28;20041;-79
2021/01/06 11:57:49;;;;;;;27.65;18.27;;;3.20;90.60;;;;;;5048348;28;20041;-74
2021/01/06 12:00:25;;;;;;;23.42;16.55;;;3.30;90.70;;;;;;5052544;28;20029;-75
2021/01/06 12:03:15;;;;;;;27.67;18.85;;;3.40;90.70;;;;;;5047032;28;20044;-75
2021/01/06 12:05:52;;;;;;;27.73;17.50;;;3.30;90.50;;;;;;5050629;28;20453;-76
2021/01/06 12:08:23;;;;;;;26.73;18.35;;;3.40;90.50;;;;;;5041560;28;20040;-75
2021/01/06 12:11:17;;;;;;;26.42;17.38;;;3.50;90.50;;;;;;5048685;28;20037;-76
2021/01/06 12:13:52;;;;;;;28.83;20.17;;;3.40;90.40;;;;;;5043143;28;20184;-76
2021/01/06 12:16:41;;;;;;;29.30;17.80;;;3.50;90.60;;;;;;5040719;28;20044;-76
2021/01/06 12:19:17;;;;;;;27.08;18.33;;;3.50;90.70;;;;;;5045825;28;20051;-76
2021/01/06 12:21:50;;;;;;;27.55;18.33;;;3.60;90.50;;;;;;5046674;28;20049;-77
2021/01/06 12:24:23;;;;;;;26.98;17.98;;;3.60;90.30;;;;;;5042973;28;20111;-76
2021/01/06 12:27:10;;;;;;;29.48;19.15;;;3.70;89.80;;;;;;5042490;28;20575;-75
2021/01/06 12:30:07;;;;;;;33.33;20.60;;;3.70;89.80;;;;;;5041832;28;20450;-76
2021/01/06 12:32:37;;;;;;;35.22;19.80;;;3.70;89.40;;;;;;5045877;28;20044;-75
2021/01/06 12:35:17;;;;;;;31.73;21.23;;;3.70;89.20;;;;;;5043882;28;20424;-77
2021/01/06 12:37:43;;;;;;;33.08;20.98;;;3.70;89.70;;;;;;5044881;28;20459;-75
2021/01/06 12:40:17;;;;;;;34.72;21.80;;;3.70;89.20;;;;;;5045189;28;20029;-74
2021/01/06 12:42:55;;;;;;;35.10;22.08;;;3.70;89.30;;;;;;5047971;28;20036;-74
2021/01/06 12:45:42;;;;;;;31.30;21.20;;;3.80;89.70;;;;;;5044829;28;20037;-75
2021/01/06 12:48:19;;;;;;;38.95;22.38;;;3.70;88.70;;;;;;5047117;28;20029;-74
2021/01/06 12:51:16;;;;;;;35.50;21.05;;;3.60;88.80;;;;;;5052473;28;20040;-74
2021/01/06 12:53:59;;;;;;;35.55;20.05;;;3.70;89.00;;;;;;5048200;28;20022;-74
2021/01/06 12:56:40;;;;;;;30.88;21.13;;;3.70;88.70;;;;;;5040847;28;20565;-75
2021/01/06 12:59:22;;;;;;;32.58;19.70;;;3.70;88.80;;;;;;5052013;28;20063;-76
2021/01/06 13:02:01;;;;;;;26.20;17.17;;;3.70;88.90;;;;;;5043281;28;20773;-74
2021/01/06 13:04:31;;;;;;;29.52;18.35;;;3.80;88.40;;;;;;5046958;28;20033;-74
2021/01/06 13:07:23;;;;;;;30.30;18.60;;;3.90;88.60;;;;;;5055018;28;20036;-74
2021/01/06 13:09:48;;;;;;;26.95;18.92;;;3.90;87.70;;;;;;5048628;28;20063;-75
2021/01/06 13:12:20;;;;;;;31.70;20.85;;;3.90;87.90;;;;;;5049694;28;20834;-77
2021/01/06 13:15:15;;;;;;;31.35;19.95;;;4.00;88.30;;;;;;5048860;28;20098;-77
2021/01/06 13:17:44;;;;;;;27.53;18.07;;;3.90;88.10;;;;;;5037113;28;20484;-75
2021/01/06 13:20:42;;;;;;;25.38;16.92;;;3.90;88.00;;;;;;5048499;28;20029;-79
2021/01/06 13:23:13;;;;;;;24.92;15.55;;;3.90;87.80;;;;;;5025987;28;20072;-76
2021/01/06 13:25:42;;;;;;;27.90;17.58;;;3.80;87.60;;;;;;5048603;28;20025;-79